Kettle, Kentucky
Current Conditions -  °F | °C
As of 6:56 PM on Monday 24 Nov 2014 (Local Time) from KEKQ Reporting Station
Clear Clear  
Wind Chill: 50°   Ceiling: Unl
Heat Index: 50°   Visibility: 10mi
Dew Point: 35°   Wind: 10mph
Humidity: 56%   Direction: 250°WSW
Pressure: 29.95"   Gusts: NA
Location:  36.7332°N, 85.3312°W
Report Text: KEKQ 250056Z AUTO 25009KT 10SM CLR 10/02 A2995 RMK AO2 T01000016 SLP143
Loading
Personal Weather Stations






























Interactive Weather Map New forecast layout! Learn more

10-Day Weather Forecast

Advertisements
Track Severe Weather on mobile